Data for 07/15/2008

Time Sea-Level Adjusted Pressure Absolute Pressure Temperature Relative Humidity Dew Point   
(mb) (inHg) (mb) (inHg) (C) (F) (%) (C) (F)
00:05 1020 30.12 849 25.07 16.9 62.4 29 -1 30.2
00:10 1020 30.12 849 25.07 16.8 62.2 29 -1.1 30
00:15 1020 30.12 849 25.07 16.6 62 30 -0.9 30.3
00:20 1020 30.12 849 25.07 16.4 61.5 30 -0.9 30.3
00:25 1020 30.12 849 25.07 16.2 61.2 30 -1.3 29.7
00:30 1020 30.12 849 25.07 16.2 61.2 29 -1.5 29.2
00:35 1020 30.12 849 25.07 16.3 61.3 29 -1.5 29.3
00:40 1020 30.12 849 25.07 16.4 61.5 29 -1.4 29.4
00:45 1020 30.12 849 25.07 16.4 61.5 28 -2.1 28.2
00:50 1020 30.12 849 25.07 16.5 61.8 29 -1.7 29
00:55 1020 30.12 849 25.07 16.3 61.4 29 -1.7 28.9
01:00 1020 30.12 849 25.07 16.2 61.2 29 -1.9 28.6
01:05 1020 30.12 849 25.07 15.8 60.4 32 -0.8 30.6
01:10 1020 30.12 849 25.07 15.2 59.3 34 -0.7 30.8
01:15 1020 30.12 849 25.07 15.2 59.3 32 -1.4 29.4
01:20 1020 30.12 849 25.07 15.2 59.4 31 -1.7 28.9
01:25 1020 30.12 849 25.07 15.7 60.2 30 -1.8 28.8
01:30 1020 30.12 849 25.07 16 60.9 29 -2 28.4
01:35 1020 30.12 849 25.07 16.1 60.9 28 -2.2 28.1
01:40 1020 30.12 849 25.07 16.1 60.9 29 -1.8 28.8
01:45 1020 30.12 849 25.07 15.9 60.6 30 -1.3 29.6
01:50 1020 30.12 849 25.07 15.9 60.7 29 -1.8 28.7
01:55 1020 30.12 849 25.07 15.6 60.1 31 -1.5 29.2
02:00 1020 30.12 849 25.07 15.4 59.8 30 -2 28.3
02:05 1020 30.12 849 25.07 15.3 59.6 30 -2 28.4
02:10 1020 30.12 849 25.07 15.4 59.8 30 -2 28.3
02:15 1020 30.12 849 25.07 15.3 59.5 31 -1.8 28.8
02:20 1020 30.12 849 25.07 15.2 59.4 30 -2 28.4
02:25 1020 30.12 849 25.07 15.2 59.3 30 -2 28.3
02:30 1020 30.12 849 25.07 15.4 59.7 30 -2 28.4
02:35 1020 30.12 849 25.07 15.3 59.5 33 -0.6 30.8
02:40 1020 30.12 849 25.07 15 59 32 -1.5 29.3
02:45 1020 30.12 849 25.07 14.4 57.9 33 -1.6 29
02:50 1020 30.12 849 25.07 14.5 58 32 -1.8 28.7
02:55 1020 30.12 849 25.07 14.2 57.6 34 -1.4 29.5
03:00 1020 30.12 849 25.07 13.8 56.9 34 -1.7 29
03:05 1020 30.12 849 25.07 13.7 56.7 36 -0.9 30.3
03:10 1020 30.12 849 25.07 13.5 56.3 35 -1.5 29.2
03:15 1020 30.12 849 25.07 13.6 56.5 36 -1.3 29.7
03:20 1020 30.12 849 25.07 13.5 56.3 35 -1.8 28.8
03:25 1020 30.12 849 25.07 13.6 56.6 34 -1.9 28.6
03:30 1020 30.12 849 25.07 13.8 56.8 34 -1.8 28.7
03:35 1020 30.12 849 25.07 13.8 56.8 33 -2.3 27.8
03:40 1020 30.12 849 25.07 14.1 57.4 31 -2.6 27.4
03:45 1020 30.12 849 25.07 14.3 57.8 33 -1.8 28.8
03:50 1020 30.12 849 25.07 14 57.1 33 -2.1 28.3
03:55 1020 30.12 849 25.07 13.8 56.9 34 -1.9 28.7
04:00 1020 30.12 849 25.07 13.9 57 32 -2.3 27.9
04:05 1020 30.12 849 25.07 14.1 57.4 33 -2 28.4
04:10 1020 30.12 849 25.07 14.1 57.4 32 -2.1 28.3
04:15 1020 30.12 849 25.07 14 57.2 33 -2 28.5
04:20 1020 30.12 849 25.07 14 57.2 33 -2 28.3
04:25 1020 30.12 849 25.07 13.8 56.8 34 -1.7 28.9
04:30 1020 30.12 849 25.07 13.4 56.1 35 -1.8 28.8
04:35 1020 30.12 849 25.07 13.3 55.9 36 -1.3 29.6
04:40 1020 30.12 849 25.07 12.8 55 37 -1.3 29.6
04:45 1020 30.12 849 25.07 12.9 55.2 36 -1.7 28.9
04:50 1020 30.12 849 25.07 12.6 54.8 38 -1.3 29.7
04:55 1020 30.12 849 25.07 12.9 55.3 35 -1.9 28.5
05:00 1020 30.12 849 25.07 13 55.4 36 -1.5 29.3
05:05 1020 30.12 849 25.07 12.9 55.2 35 -2.2 28.1
05:10 1020 30.12 849 25.07 13.5 56.2 33 -2.3 27.8
05:15 1020 30.12 849 25.07 13.5 56.3 35 -1.6 29
05:20 1020 30.12 849 25.07 13.2 55.7 34 -2.2 28.1
05:25 1020 30.12 850 25.1 13.3 55.9 37 -1.1 30
05:30 1020 30.12 850 25.1 13 55.3 37 -1.5 29.3
05:35 1020 30.12 850 25.1 13.1 55.6 34 -2.5 27.6
05:40 1020 30.12 850 25.1 13.7 56.6 32 -2.6 27.3
05:45 1020 30.12 850 25.1 14.1 57.4 32 -2.4 27.8
05:50 1020 30.12 850 25.1 14.2 57.5 32 -2.2 28.1
05:55 1020 30.12 850 25.1 13.8 56.9 34 -1.8 28.7
06:00 1020 30.12 850 25.1 13.4 56.1 36 -1.4 29.4
06:05 1020 30.12 849 25.07 12.9 55.2 37 -1.3 29.7
06:10 1020 30.12 849 25.07 12.6 54.6 37 -1.5 29.3
06:15 1020 30.12 849 25.07 12.7 54.9 37 -1.6 29.2
06:20 1020 30.12 849 25.07 13 55.3 35 -2.2 28.1
06:25 1020 30.12 849 25.07 13.5 56.2 33 -2.2 28
06:30 1020 30.12 849 25.07 13.7 56.6 33 -2.1 28.2
06:35 1020 30.12 849 25.07 13.7 56.6 34 -1.7 28.9
06:40 1020 30.12 849 25.07 13.5 56.2 35 -1.6 29.2
06:45 1020 30.12 849 25.07 13.3 56 37 -1 30.1
06:50 1020 30.12 849 25.07 13.1 55.6 37 -1.3 29.7
06:55 1020 30.12 850 25.1 13.4 56.2 35 -1.7 29
07:00 1021 30.15 850 25.1 13.8 56.9 34 -1.7 28.9
07:05 1021 30.15 850 25.1 14.1 57.4 34 -1.3 29.7
07:10 1021 30.15 850 25.1 14.5 58 33 -1.6 29.2
07:15 1021 30.15 850 25.1 14.8 58.6 34 -1 30.2
07:20 1021 30.15 850 25.1 14.9 58.8 33 -1 30.3
07:25 1021 30.15 850 25.1 14.9 58.8 33 -1 30.1
07:30 1021 30.15 850 25.1 15 59.1 35 -0.3 31.5
07:35 1021 30.15 850 25.1 15.1 59.2 34 -0.6 31
07:40 1021 30.15 850 25.1 15.8 60.4 33 -0.5 31
07:45 1021 30.15 850 25.1 15.9 60.6 34 0 32
07:50 1021 30.15 850 25.1 15.6 60.1 35 0.2 32.3
07:55 1021 30.15 850 25.1 15.9 60.7 33 -0 32
08:00 1021 30.15 850 25.1 16.4 61.5 33 0 32
08:05 1021 30.15 850 25.1 16.5 61.7 32 -0.1 31.8
08:10 1021 30.15 850 25.1 16.5 61.6 32 -0.2 31.6
08:15 1021 30.15 850 25.1 16.7 62 32 0.1 32.2
08:20 1021 30.15 851 25.13 16.8 62.3 35 1.2 34.2
08:25 1022 30.18 851 25.13 16.7 62 34 0.8 33.4
08:30 1022 30.18 851 25.13 16.5 61.7 34 0.6 33.1
08:35 1022 30.18 851 25.13 16.5 61.7 34 0.7 33.2
08:40 1022 30.18 851 25.13 16.5 61.7 33 0.4 32.8
08:45 1022 30.18 851 25.13 15.8 60.5 41 2.6 36.6
08:50 1022 30.18 851 25.13 15.4 59.8 42 2.8 37.1
08:55 1022 30.18 851 25.13 15.3 59.6 44 3.2 37.8
09:00 1022 30.18 851 25.13 16.1 60.9 34 0.2 32.4
09:05 1022 30.18 851 25.13 17.1 62.8 32 0.6 33.1
09:10 1022 30.18 851 25.13 17.8 64.1 34 1.8 35.2
09:15 1022 30.18 851 25.13 17.9 64.2 31 0.8 33.4
09:20 1022 30.18 851 25.13 17.5 63.6 33 1.2 34.2
09:25 1021 30.15 851 25.13 18.2 64.8 28 -0.4 31.3
09:30 1021 30.15 851 25.13 19 66.2 28 0.2 32.4
09:35 1021 30.15 851 25.13 20.2 68.3 25 -0.4 31.3
09:40 1021 30.15 851 25.13 20.9 69.6 22 -1.3 29.7
09:45 1021 30.15 850 25.1 21.1 69.9 23 -0.7 30.8
09:50 1021 30.15 850 25.1 20.7 69.3 25 0.3 32.5
09:55 1021 30.15 850 25.1 21.1 69.9 24 0.1 32.1
10:00 1021 30.15 850 25.1 21.5 70.7 25 0.6 33.1
10:05 1021 30.15 850 25.1 21.9 71.5 27 2.1 35.8
10:10 1021 30.15 850 25.1 22.4 72.3 23 0.5 32.9
10:15 1021 30.15 850 25.1 23.3 73.9 23 1.2 34.2
10:20 1021 30.15 850 25.1 22.7 72.8 25 1.7 35
10:25 1021 30.15 850 25.1 21.6 70.9 25 0.9 33.6
10:30 1021 30.15 850 25.1 21.3 70.3 25 0.5 32.9
10:35 1021 30.15 850 25.1 21.3 70.4 25 0.9 33.6
10:40 1021 30.15 850 25.1 21.1 69.9 27 1.3 34.4
10:45 1021 30.15 850 25.1 21.8 71.3 25 0.9 33.6
10:50 1021 30.15 850 25.1 22.4 72.4 23 0.4 32.8
10:55 1021 30.15 850 25.1 22.7 72.8 24 1 33.9
11:00 1021 30.15 850 25.1 22.7 72.8 23 0.8 33.5
11:05 1021 30.15 850 25.1 23.8 74.8 22 0.7 33.3
11:10 1021 30.15 850 25.1 23.2 73.8 22 0.8 33.5
11:15 1021 30.15 850 25.1 24.3 75.7 21 0.7 33.2
11:20 1021 30.15 850 25.1 23.7 74.6 22 1.2 34.1
11:25 1021 30.15 850 25.1 24 75.3 22 1.3 34.3
11:30 1021 30.15 850 25.1 24.2 75.5 22 1.4 34.5
11:35 1021 30.15 850 25.1 24.2 75.5 22 1.3 34.3
11:40 1021 30.15 850 25.1 24.5 76.2 21 1.3 34.3
11:45 1020 30.12 850 25.1 24.6 76.2 21 0.9 33.6
11:50 1020 30.12 850 25.1 24.7 76.4 21 1 33.8
11:55 1020 30.12 850 25.1 25 76.9 22 1.8 35.2
12:00 1020 30.12 850 25.1 24.8 76.6 22 2 35.6
12:05 1020 30.12 849 25.07 24.9 76.9 22 2.1 35.8
12:10 1020 30.12 849 25.07 24.8 76.7 23 2.6 36.8
12:15 1020 30.12 849 25.07 24.9 76.8 22 2 35.6
12:20 1020 30.12 849 25.07 25 77 23 2.6 36.6
12:25 1020 30.12 849 25.07 24.7 76.4 23 2.5 36.4
12:30 1020 30.12 849 25.07 24.4 75.9 23 2.1 35.8
12:35 1020 30.12 849 25.07 24.6 76.3 21 1.2 34.1
12:40 1020 30.12 849 25.07 24.6 76.3 20 0.7 33.2
12:45 1020 30.12 849 25.07 24.5 76 18 -0.9 30.3
12:50 1020 30.12 849 25.07 24.4 76 19 -0.1 31.8
12:55 1020 30.12 849 25.07 24.8 76.7 19 0.2 32.4
13:00 1020 30.12 849 25.07 25.1 77.3 19 -0.2 31.7
13:05 1020 30.12 849 25.07 25.3 77.5 19 0.4 32.7
13:10 1020 30.12 849 25.07 25.1 77.1 20 0.5 32.8
13:15 1020 30.12 849 25.07 25 77 20 0.5 32.9
13:20 1020 30.12 849 25.07 25.3 77.5 20 0.7 33.2
13:25 1019 30.09 849 25.07 26.4 79.4 16 -0.9 30.4
13:30 1019 30.09 849 25.07 26 78.9 18 0.2 32.4
13:35 1019 30.09 849 25.07 25.4 77.7 19 0.1 32.1
13:40 1019 30.09 849 25.07 25.4 77.7 18 -0.5 31.1
13:45 1019 30.09 848 25.04 25.9 78.5 17 -1 30.2
13:50 1019 30.09 848 25.04 26.8 80.2 16 -1 30.3
13:55 1019 30.09 848 25.04 26.5 79.7 17 -0.2 31.7
14:00 1019 30.09 848 25.04 26.6 79.9 17 0.1 32.2
14:05 1019 30.09 848 25.04 26.7 80.1 18 0.6 33
14:10 1019 30.09 848 25.04 26.7 80 16 -0.6 30.9
14:15 1019 30.09 848 25.04 26.4 79.5 16 -0.9 30.5
14:20 1019 30.09 848 25.04 26.6 79.9 17 -0.4 31.2
14:25 1019 30.09 848 25.04 27 80.6 17 0 32
14:30 1019 30.09 848 25.04 27.2 80.9 17 0.2 32.4
14:35 1019 30.09 848 25.04 27 80.7 19 1.6 34.9
14:40 1019 30.09 848 25.04 27.6 81.6 17 0.7 33.2
14:45 1019 30.09 848 25.04 27.5 81.4 17 0.2 32.3
14:50 1019 30.09 848 25.04 26.5 79.7 18 0.4 32.7
14:55 1019 30.09 848 25.04 26.4 79.5 18 0.7 33.2
15:00 1019 30.09 848 25.04 26.6 79.9 18 0.5 32.9
15:05 1019 30.09 848 25.04 25.9 78.6 19 0.6 33.1
15:10 1019 30.09 848 25.04 25.7 78.2 19 0.5 32.9
15:15 1019 30.09 848 25.04 25.5 78 20 0.9 33.7
15:20 1019 30.09 848 25.04 25.5 77.9 20 1.2 34.2
15:25 1019 30.09 848 25.04 25.9 78.6 20 1.1 34.1
15:30 1019 30.09 848 25.04 25.9 78.6 19 0.9 33.6
15:35 1019 30.09 848 25.04 25.8 78.4 20 1.2 34.2
15:40 1019 30.09 848 25.04 25.8 78.4 20 1.5 34.7
15:45 1019 30.09 848 25.04 25.8 78.4 20 1.6 34.9
15:50 1019 30.09 848 25.04 25.8 78.4 21 2.4 36.3
15:55 1019 30.09 848 25.04 25.7 78.3 21 2.2 35.9
16:00 1019 30.09 848 25.04 25.5 77.8 20 1.3 34.4
16:05 1019 30.09 848 25.04 25.3 77.6 21 2 35.6
16:10 1019 30.09 848 25.04 25.6 78 22 2.6 36.8
16:15 1019 30.09 848 25.04 25.5 77.8 23 3.2 37.8
16:20 1019 30.09 848 25.04 25.5 77.8 24 3.7 38.6
16:25 1019 30.09 848 25.04 25.3 77.6 24 3.5 38.3
16:30 1019 30.09 848 25.04 25.3 77.6 24 3.3 37.9
16:35 1019 30.09 848 25.04 25.1 77.1 25 4.1 39.4
16:40 1019 30.09 848 25.04 25.2 77.4 24 3.4 38
16:45 1019 30.09 848 25.04 25.3 77.5 22 2.5 36.5
16:50 1018 30.06 848 25.04 25.5 77.8 21 1.8 35.2
16:55 1018 30.06 848 25.04 25.5 77.9 26 4.7 40.5
17:00 1019 30.09 848 25.04 25.1 77.2 25 3.9 39
17:05 1019 30.09 848 25.04 24.6 76.2 28 5.3 41.5
17:10 1019 30.09 848 25.04 24.5 76.1 30 5.8 42.5
17:15 1018 30.06 848 25.04 24.7 76.4 28 5.4 41.7
17:20 1018 30.06 848 25.04 24.8 76.6 30 6.2 43.1
17:25 1018 30.06 848 25.04 24.2 75.5 35 8.1 46.5
17:30 1018 30.06 848 25.04 23.9 75 36 8.1 46.6
17:35 1018 30.06 847 25.01 23.7 74.6 36 7.7 45.9
17:40 1018 30.06 848 25.04 23.9 74.9 33 6.9 44.4
17:45 1018 30.06 848 25.04 23.9 75 33 6.8 44.2
17:50 1018 30.06 848 25.04 23.9 75 31 6.2 43.1
17:55 1019 30.09 848 25.04 24 75.1 34 7.3 45.1
18:00 1019 30.09 848 25.04 24 75.2 29 4.9 40.8
18:05 1019 30.09 848 25.04 24.2 75.6 30 5.6 42.1
18:10 1019 30.09 848 25.04 24.5 76 28 5 41
18:15 1019 30.09 848 25.04 24.6 76.3 27 4.4 39.9
18:20 1019 30.09 848 25.04 24.7 76.4 29 5.7 42.3
18:25 1018 30.06 848 25.04 24.6 76.3 28 5.3 41.5
18:30 1018 30.06 847 25.01 24.5 76.1 27 4.7 40.4
18:35 1018 30.06 847 25.01 24.5 76.1 28 5.3 41.5
18:40 1018 30.06 847 25.01 24.6 76.2 24 3.2 37.7
18:45 1018 30.06 847 25.01 24.5 76.1 26 3.7 38.7
18:50 1018 30.06 847 25.01 24.3 75.7 27 4.1 39.4
18:55 1018 30.06 847 25.01 24.1 75.4 28 4.9 40.9
19:00 1018 30.06 847 25.01 24.2 75.6 27 4.3 39.7
19:05 1018 30.06 847 25.01 24.1 75.3 28 4.5 40.1
19:10 1018 30.06 847 25.01 23.9 75.1 27 3.9 39.1
19:15 1018 30.06 847 25.01 24.2 75.5 27 4.1 39.3
19:20 1018 30.06 847 25.01 24.2 75.6 26 3.9 39
19:25 1018 30.06 847 25.01 24.2 75.5 26 3.5 38.4
19:30 1018 30.06 847 25.01 24.1 75.3 25 3 37.4
19:35 1018 30.06 847 25.01 24.1 75.3 25 2.8 37.1
19:40 1018 30.06 847 25.01 24.1 75.4 24 2.4 36.4
19:45 1018 30.06 847 25.01 24.1 75.3 23 1.7 35.1
19:50 1018 30.06 847 25.01 24 75.1 24 2.7 36.8
19:55 1017 30.03 847 25.01 23.8 74.8 25 2.6 36.7
20:00 1018 30.06 847 25.01 23.7 74.7 24 2.2 36
20:05 1018 30.06 847 25.01 23.6 74.4 24 2.3 36.1
20:10 1017 30.03 847 25.01 23.4 74.2 25 2.3 36.2
20:15 1017 30.03 847 25.01 23.5 74.2 24 2.2 35.9
20:20 1017 30.03 847 25.01 23.5 74.3 24 2.1 35.8
20:25 1017 30.03 847 25.01 23.4 74.2 25 2.3 36.1
20:30 1017 30.03 847 25.01 23.4 74.2 24 1.9 35.4
20:35 1017 30.03 847 25.01 23.5 74.3 25 2.3 36.1
20:40 1017 30.03 847 25.01 23.2 73.8 26 2.9 37.2
20:45 1018 30.06 847 25.01 22.9 73.2 27 3.3 38
20:50 1018 30.06 847 25.01 22.5 72.5 29 3.6 38.5
20:55 1018 30.06 847 25.01 22.3 72.1 29 3.8 38.9
21:00 1018 30.06 847 25.01 22 71.6 30 3.8 38.9
21:05 1018 30.06 847 25.01 21.8 71.3 28 2.6 36.7
21:10 1018 30.06 847 25.01 21.9 71.5 29 3.4 38.1
21:15 1018 30.06 847 25.01 21.6 70.9 30 3.6 38.4
21:20 1018 30.06 847 25.01 21.4 70.4 30 3.1 37.7
21:25 1018 30.06 847 25.01 21.3 70.4 30 3.1 37.5
21:30 1018 30.06 847 25.01 21.3 70.3 30 3 37.4
21:35 1018 30.06 847 25.01 21.2 70.1 29 2.8 37.1
21:40 1018 30.06 847 25.01 21.3 70.3 29 2.8 37.1
21:45 1018 30.06 848 25.04 21.2 70.2 29 2.8 37.1
21:50 1018 30.06 848 25.04 21.2 70.2 30 2.9 37.2
21:55 1019 30.09 848 25.04 21.1 70 30 3 37.4
22:00 1019 30.09 848 25.04 20.9 69.6 31 3.2 37.8
22:05 1019 30.09 848 25.04 20.7 69.2 33 3.9 39
22:10 1019 30.09 848 25.04 20.2 68.3 36 4.7 40.4
22:15 1019 30.09 848 25.04 19.4 66.9 39 5.2 41.4
22:20 1019 30.09 848 25.04 18.5 65.4 41 5.2 41.4
22:25 1019 30.09 848 25.04 18 64.3 43 5.3 41.6
22:30 1019 30.09 848 25.04 17.6 63.7 44 5.3 41.5
22:35 1019 30.09 848 25.04 17.8 64.1 42 5 41
22:40 1019 30.09 848 25.04 18 64.5 41 4.6 40.3
22:45 1019 30.09 849 25.07 18.4 65 38 4.1 39.3
22:50 1020 30.12 849 25.07 18.7 65.6 40 5.1 41.2
22:55 1020 30.12 849 25.07 18.1 64.7 42 5.3 41.5
23:00 1020 30.12 849 25.07 18.2 64.8 42 5.1 41.1
23:05 1019 30.09 849 25.07 18.5 65.3 39 4.5 40.2
23:10 1019 30.09 848 25.04 18.8 65.8 39 4.8 40.6
23:15 1019 30.09 848 25.04 19.2 66.5 39 4.9 40.8
23:20 1019 30.09 848 25.04 18.9 65.9 42 5.7 42.3
23:25 1019 30.09 848 25.04 18.4 65.1 42 5.5 41.9
23:30 1019 30.09 848 25.04 18.1 64.5 45 6 42.7
23:35 1019 30.09 848 25.04 17.9 64.2 44 5.6 42
23:40 1019 30.09 848 25.04 18 64.5 43 5.3 41.5
23:45 1019 30.09 848 25.04 17.9 64.2 45 5.8 42.5
23:50 1019 30.09 849 25.07 17.5 63.5 45 5.6 42.2
23:55 1019 30.09 849 25.07 17.3 63.2 45 5.5 42
24:00 1019 30.09 849 25.07 17.3 63.1 45 5.4 41.6